sensor_id;sensor_type;location;lat;lon;timestamp;P1;P2;P0
44871;PMS7003;30602;51.060;17.226;2022-07-01T00:00:22;36;32;22
44871;PMS7003;30602;51.060;17.226;2022-07-01T00:03:44;37;32;23
44871;PMS7003;30602;51.060;17.226;2022-07-01T00:07:55;35;31;22
44871;PMS7003;30602;51.060;17.226;2022-07-01T00:11:05;42;37;25
44871;PMS7003;30602;51.060;17.226;2022-07-01T00:14:57;34;32;23
44871;PMS7003;30602;51.060;17.226;2022-07-01T00:18:06;38;34;24
44871;PMS7003;30602;51.060;17.226;2022-07-01T00:21:40;39;32;24
44871;PMS7003;30602;51.060;17.226;2022-07-01T00:24:51;34;29;21
44871;PMS7003;30602;51.060;17.226;2022-07-01T00:28:22;40;34;23
44871;PMS7003;30602;51.060;17.226;2022-07-01T00:31:36;37;33;24
44871;PMS7003;30602;51.060;17.226;2022-07-01T00:35:10;37;32;22
44871;PMS7003;30602;51.060;17.226;2022-07-01T00:38:17;37;32;22
44871;PMS7003;30602;51.060;17.226;2022-07-01T00:41:40;39;33;23
44871;PMS7003;30602;51.060;17.226;2022-07-01T00:45:20;37;32;24
44871;PMS7003;30602;51.060;17.226;2022-07-01T00:48:50;36;32;23
44871;PMS7003;30602;51.060;17.226;2022-07-01T00:52:41;35;32;23
44871;PMS7003;30602;51.060;17.226;2022-07-01T00:57:13;38;33;23
44871;PMS7003;30602;51.060;17.226;2022-07-01T01:01:20;39;33;24
44871;PMS7003;30602;51.060;17.226;2022-07-01T01:04:51;38;33;23
44871;PMS7003;30602;51.060;17.226;2022-07-01T01:08:04;38;33;23
44871;PMS7003;30602;51.060;17.226;2022-07-01T01:11:52;39;34;24
44871;PMS7003;30602;51.060;17.226;2022-07-01T01:15:23;33;31;23
44871;PMS7003;30602;51.060;17.226;2022-07-01T01:19:51;42;36;26
44871;PMS7003;30602;51.060;17.226;2022-07-01T01:23:21;34;32;23
44871;PMS7003;30602;51.060;17.226;2022-07-01T01:27:05;37;32;23
44871;PMS7003;30602;51.060;17.226;2022-07-01T01:30:59;42;36;26
44871;PMS7003;30602;51.060;17.226;2022-07-01T01:34:33;42;35;23
44871;PMS7003;30602;51.060;17.226;2022-07-01T01:38:20;42;34;24
44871;PMS7003;30602;51.060;17.226;2022-07-01T01:41:59;37;33;24
44871;PMS7003;30602;51.060;17.226;2022-07-01T01:45:43;40;33;23
44871;PMS7003;30602;51.060;17.226;2022-07-01T01:49:16;35;33;24
44871;PMS7003;30602;51.060;17.226;2022-07-01T01:53:02;35;32;22
44871;PMS7003;30602;51.060;17.226;2022-07-01T01:59:42;36;31;22
44871;PMS7003;30602;51.060;17.226;2022-07-01T02:03:24;36;32;23
44871;PMS7003;30602;51.060;17.226;2022-07-01T02:06:57;34;32;23
44871;PMS7003;30602;51.060;17.226;2022-07-01T02:10:13;41;33;24
44871;PMS7003;30602;51.060;17.226;2022-07-01T02:13:26;39;34;24
44871;PMS7003;30602;51.060;17.226;2022-07-01T02:17:01;45;37;25
44871;PMS7003;30602;51.060;17.226;2022-07-01T02:20:22;37;31;23
44871;PMS7003;30602;51.060;17.226;2022-07-01T02:23:52;37;34;24
44871;PMS7003;30602;51.060;17.226;2022-07-01T02:27:19;41;34;23
44871;PMS7003;30602;51.060;17.226;2022-07-01T02:30:31;38;34;23
44871;PMS7003;30602;51.060;17.226;2022-07-01T02:33:47;40;34;24
44871;PMS7003;30602;51.060;17.226;2022-07-01T02:37:23;39;34;23
44871;PMS7003;30602;51.060;17.226;2022-07-01T02:40:44;34;32;23
44871;PMS7003;30602;51.060;17.226;2022-07-01T02:44:06;35;33;23
44871;PMS7003;30602;51.060;17.226;2022-07-01T02:47:18;37;33;23
44871;PMS7003;30602;51.060;17.226;2022-07-01T02:50:31;41;35;25
44871;PMS7003;30602;51.060;17.226;2022-07-01T02:54:15;40;33;23
44871;PMS7003;30602;51.060;17.226;2022-07-01T02:57:27;40;33;23
44871;PMS7003;30602;51.060;17.226;2022-07-01T03:01:01;39;32;24
44871;PMS7003;30602;51.060;17.226;2022-07-01T03:04:35;36;31;22
44871;PMS7003;30602;51.060;17.226;2022-07-01T03:07:46;35;30;22
44871;PMS7003;30602;51.060;17.226;2022-07-01T03:11:01;34;31;23
44871;PMS7003;30602;51.060;17.226;2022-07-01T03:14:32;35;32;23
44871;PMS7003;30602;51.060;17.226;2022-07-01T03:18:21;37;32;23
44871;PMS7003;30602;51.060;17.226;2022-07-01T03:21:47;32;30;22
44871;PMS7003;30602;51.060;17.226;2022-07-01T03:25:18;37;31;23
44871;PMS7003;30602;51.060;17.226;2022-07-01T03:29:25;30;29;21
44871;PMS7003;30602;51.060;17.226;2022-07-01T03:32:54;34;30;23
44871;PMS7003;30602;51.060;17.226;2022-07-01T03:36:24;34;32;22
44871;PMS7003;30602;51.060;17.226;2022-07-01T03:39:35;30;29;22
44871;PMS7003;30602;51.060;17.226;2022-07-01T03:43:41;40;31;22
44871;PMS7003;30602;51.060;17.226;2022-07-01T03:47:29;31;30;22
44871;PMS7003;30602;51.060;17.226;2022-07-01T03:51:00;32;29;21
44871;PMS7003;30602;51.060;17.226;2022-07-01T03:54:44;33;30;22
44871;PMS7003;30602;51.060;17.226;2022-07-01T03:57:56;34;30;22
44871;PMS7003;30602;51.060;17.226;2022-07-01T04:01:25;29;28;21
44871;PMS7003;30602;51.060;17.226;2022-07-01T04:05:12;32;29;22
44871;PMS7003;30602;51.060;17.226;2022-07-01T04:08:22;30;27;20
44871;PMS7003;30602;51.060;17.226;2022-07-01T04:11:54;28;28;21
44871;PMS7003;30602;51.060;17.226;2022-07-01T04:15:19;31;28;20
44871;PMS7003;30602;51.060;17.226;2022-07-01T04:19:03;28;26;20
44871;PMS7003;30602;51.060;17.226;2022-07-01T04:22:40;27;25;19
44871;PMS7003;30602;51.060;17.226;2022-07-01T04:26:23;27;25;19
44871;PMS7003;30602;51.060;17.226;2022-07-01T04:29:53;28;24;18
44871;PMS7003;30602;51.060;17.226;2022-07-01T04:33:10;28;25;19
44871;PMS7003;30602;51.060;17.226;2022-07-01T04:36:37;25;22;19
44871;PMS7003;30602;51.060;17.226;2022-07-01T04:39:48;26;24;18
44871;PMS7003;30602;51.060;17.226;2022-07-01T04:43:44;27;25;19
44871;PMS7003;30602;51.060;17.226;2022-07-01T04:47:06;26;24;19
44871;PMS7003;30602;51.060;17.226;2022-07-01T04:50:27;26;24;19
44871;PMS7003;30602;51.060;17.226;2022-07-01T04:53:38;27;25;19
44871;PMS7003;30602;51.060;17.226;2022-07-01T04:56:58;29;26;21
44871;PMS7003;30602;51.060;17.226;2022-07-01T05:00:06;31;26;18
44871;PMS7003;30602;51.060;17.226;2022-07-01T05:03:46;29;27;20
44871;PMS7003;30602;51.060;17.226;2022-07-01T05:07:37;29;26;21
44871;PMS7003;30602;51.060;17.226;2022-07-01T05:15:09;27;26;20
44871;PMS7003;30602;51.060;17.226;2022-07-01T05:18:19;33;30;21
44871;PMS7003;30602;51.060;17.226;2022-07-01T05:21:56;30;29;22
44871;PMS7003;30602;51.060;17.226;2022-07-01T05:25:30;32;29;22
44871;PMS7003;30602;51.060;17.226;2022-07-01T05:28:39;27;27;21
44871;PMS7003;30602;51.060;17.226;2022-07-01T05:31:50;32;29;22
44871;PMS7003;30602;51.060;17.226;2022-07-01T05:34:57;32;30;22
44871;PMS7003;30602;51.060;17.226;2022-07-01T05:38:06;31;29;22
44871;PMS7003;30602;51.060;17.226;2022-07-01T05:41:33;31;29;21
44871;PMS7003;30602;51.060;17.226;2022-07-01T05:45:06;35;31;22
44871;PMS7003;30602;51.060;17.226;2022-07-01T05:48:25;34;28;21
44871;PMS7003;30602;51.060;17.226;2022-07-01T05:52:08;31;29;22
44871;PMS7003;30602;51.060;17.226;2022-07-01T05:55:25;26;24;18
44871;PMS7003;30602;51.060;17.226;2022-07-01T05:59:09;40;32;24
44871;PMS7003;30602;51.060;17.226;2022-07-01T06:02:45;32;28;21
44871;PMS7003;30602;51.060;17.226;2022-07-01T06:05:53;32;30;22
44871;PMS7003;30602;51.060;17.226;2022-07-01T06:09:32;34;30;21
44871;PMS7003;30602;51.060;17.226;2022-07-01T06:13:22;33;30;22
44871;PMS7003;30602;51.060;17.226;2022-07-01T06:17:03;32;28;20
44871;PMS7003;30602;51.060;17.226;2022-07-01T06:20:24;35;30;23
44871;PMS7003;30602;51.060;17.226;2022-07-01T06:23:46;30;28;21
44871;PMS7003;30602;51.060;17.226;2022-07-01T06:27:11;33;29;20
44871;PMS7003;30602;51.060;17.226;2022-07-01T06:30:33;37;33;23
44871;PMS7003;30602;51.060;17.226;2022-07-01T06:34:25;33;31;22
44871;PMS7003;30602;51.060;17.226;2022-07-01T06:37:45;36;30;22
44871;PMS7003;30602;51.060;17.226;2022-07-01T06:41:54;34;30;23
44871;PMS7003;30602;51.060;17.226;2022-07-01T06:45:33;37;30;22
44871;PMS7003;30602;51.060;17.226;2022-07-01T06:49:33;35;31;22
44871;PMS7003;30602;51.060;17.226;2022-07-01T06:52:50;30;28;21
44871;PMS7003;30602;51.060;17.226;2022-07-01T06:56:05;33;31;22
44871;PMS7003;30602;51.060;17.226;2022-07-01T06:59:24;32;28;21
44871;PMS7003;30602;51.060;17.226;2022-07-01T07:03:01;36;31;23
44871;PMS7003;30602;51.060;17.226;2022-07-01T07:06:28;33;30;22
44871;PMS7003;30602;51.060;17.226;2022-07-01T07:10:05;35;31;22
44871;PMS7003;30602;51.060;17.226;2022-07-01T07:13:47;34;29;22
44871;PMS7003;30602;51.060;17.226;2022-07-01T07:16:57;29;27;21
44871;PMS7003;30602;51.060;17.226;2022-07-01T07:20:58;31;29;22
44871;PMS7003;30602;51.060;17.226;2022-07-01T07:24:09;33;30;21
44871;PMS7003;30602;51.060;17.226;2022-07-01T07:31:39;30;27;21
44871;PMS7003;30602;51.060;17.226;2022-07-01T07:34:55;31;29;21
44871;PMS7003;30602;51.060;17.226;2022-07-01T07:38:39;31;28;20
44871;PMS7003;30602;51.060;17.226;2022-07-01T07:41:59;29;28;20
44871;PMS7003;30602;51.060;17.226;2022-07-01T07:45:57;31;29;20
44871;PMS7003;30602;51.060;17.226;2022-07-01T07:49:15;31;27;21
44871;PMS7003;30602;51.060;17.226;2022-07-01T07:52:46;28;26;18
44871;PMS7003;30602;51.060;17.226;2022-07-01T07:56:16;28;27;20
44871;PMS7003;30602;51.060;17.226;2022-07-01T08:03:51;29;27;21
44871;PMS7003;30602;51.060;17.226;2022-07-01T08:07:03;31;28;22
44871;PMS7003;30602;51.060;17.226;2022-07-01T08:10:16;25;24;18
44871;PMS7003;30602;51.060;17.226;2022-07-01T08:13:54;29;26;20
44871;PMS7003;30602;51.060;17.226;2022-07-01T09:15:45;29;25;20
44871;PMS7003;30602;51.060;17.226;2022-07-01T09:27:08;22;22;17
44871;PMS7003;30602;51.060;17.226;2022-07-01T09:30:47;22;22;18
44871;PMS7003;30602;51.060;17.226;2022-07-01T09:37:55;25;23;19
44871;PMS7003;30602;51.060;17.226;2022-07-01T09:41:42;26;24;18
44871;PMS7003;30602;51.060;17.226;2022-07-01T09:45:13;25;22;18
44871;PMS7003;30602;51.060;17.226;2022-07-01T09:48:22;25;24;19
44871;PMS7003;30602;51.060;17.226;2022-07-01T09:51:37;25;25;18
44871;PMS7003;30602;51.060;17.226;2022-07-01T09:54:56;25;25;20
44871;PMS7003;30602;51.060;17.226;2022-07-01T09:58:25;24;23;18
44871;PMS7003;30602;51.060;17.226;2022-07-01T10:02:28;26;23;19
44871;PMS7003;30602;51.060;17.226;2022-07-01T10:05:45;23;22;19
44871;PMS7003;30602;51.060;17.226;2022-07-01T10:13:56;27;25;20
44871;PMS7003;30602;51.060;17.226;2022-07-01T10:17:28;26;22;17
44871;PMS7003;30602;51.060;17.226;2022-07-01T10:21:04;24;22;18
44871;PMS7003;30602;51.060;17.226;2022-07-01T10:28:26;25;24;19
44871;PMS7003;30602;51.060;17.226;2022-07-01T10:32:25;25;24;19
44871;PMS7003;30602;51.060;17.226;2022-07-01T10:35:49;31;26;20
44871;PMS7003;30602;51.060;17.226;2022-07-01T10:39:23;26;24;19
44871;PMS7003;30602;51.060;17.226;2022-07-01T10:49:58;23;22;18
44871;PMS7003;30602;51.060;17.226;2022-07-01T10:53:11;25;23;19
44871;PMS7003;30602;51.060;17.226;2022-07-01T10:56:52;23;22;18
44871;PMS7003;30602;51.060;17.226;2022-07-01T11:00:31;23;23;19
44871;PMS7003;30602;51.060;17.226;2022-07-01T11:03:51;26;22;18
44871;PMS7003;30602;51.060;17.226;2022-07-01T11:07:12;26;23;18
44871;PMS7003;30602;51.060;17.226;2022-07-01T11:10:22;23;22;18
44871;PMS7003;30602;51.060;17.226;2022-07-01T11:17:27;24;23;18
44871;PMS7003;30602;51.060;17.226;2022-07-01T11:21:09;22;21;17
44871;PMS7003;30602;51.060;17.226;2022-07-01T11:24:20;25;22;18
44871;PMS7003;30602;51.060;17.226;2022-07-01T11:27:44;24;23;18
44871;PMS7003;30602;51.060;17.226;2022-07-01T11:30:58;23;21;17
44871;PMS7003;30602;51.060;17.226;2022-07-01T11:34:30;22;21;18
44871;PMS7003;30602;51.060;17.226;2022-07-01T11:38:16;23;20;17
44871;PMS7003;30602;51.060;17.226;2022-07-01T11:42:03;20;19;18
44871;PMS7003;30602;51.060;17.226;2022-07-01T11:46:00;20;19;17
44871;PMS7003;30602;51.060;17.226;2022-07-01T11:49:31;25;21;18
44871;PMS7003;30602;51.060;17.226;2022-07-01T11:52:57;24;20;17
44871;PMS7003;30602;51.060;17.226;2022-07-01T11:57:06;24;20;17
44871;PMS7003;30602;51.060;17.226;2022-07-01T12:00:32;19;19;16
44871;PMS7003;30602;51.060;17.226;2022-07-01T12:03:55;21;20;16
44871;PMS7003;30602;51.060;17.226;2022-07-01T12:07:26;21;19;17
44871;PMS7003;30602;51.060;17.226;2022-07-01T12:11:09;23;21;17
44871;PMS7003;30602;51.060;17.226;2022-07-01T12:14:20;22;21;16
44871;PMS7003;30602;51.060;17.226;2022-07-01T12:17:32;22;21;19
44871;PMS7003;30602;51.060;17.226;2022-07-01T12:21:25;20;20;18
44871;PMS7003;30602;51.060;17.226;2022-07-01T12:24:34;22;20;17
44871;PMS7003;30602;51.060;17.226;2022-07-01T12:28:22;24;22;17
44871;PMS7003;30602;51.060;17.226;2022-07-01T12:32:05;16;15;12
44871;PMS7003;30602;51.060;17.226;2022-07-01T12:35:40;28;22;17
44871;PMS7003;30602;51.060;17.226;2022-07-01T12:39:25;20;17;14
44871;PMS7003;30602;51.060;17.226;2022-07-01T12:42:35;17;15;14
44871;PMS7003;30602;51.060;17.226;2022-07-01T12:45:53;24;23;18
44871;PMS7003;30602;51.060;17.226;2022-07-01T12:49:02;16;16;14
44871;PMS7003;30602;51.060;17.226;2022-07-01T12:55:37;22;21;17
44871;PMS7003;30602;51.060;17.226;2022-07-01T12:58:51;22;21;17
44871;PMS7003;30602;51.060;17.226;2022-07-01T13:02:03;23;21;18
44871;PMS7003;30602;51.060;17.226;2022-07-01T13:05:31;28;22;18
44871;PMS7003;30602;51.060;17.226;2022-07-01T13:08:43;23;22;18
44871;PMS7003;30602;51.060;17.226;2022-07-01T13:12:11;24;21;17
44871;PMS7003;30602;51.060;17.226;2022-07-01T13:15:20;21;19;17
44871;PMS7003;30602;51.060;17.226;2022-07-01T13:18:29;22;21;18
44871;PMS7003;30602;51.060;17.226;2022-07-01T13:22:03;24;21;17
44871;PMS7003;30602;51.060;17.226;2022-07-01T13:25:15;28;22;16
44871;PMS7003;30602;51.060;17.226;2022-07-01T13:28:27;21;19;16
44871;PMS7003;30602;51.060;17.226;2022-07-01T13:31:59;21;18;15
44871;PMS7003;30602;51.060;17.226;2022-07-01T13:35:21;18;17;14
44871;PMS7003;30602;51.060;17.226;2022-07-01T13:38:31;18;17;13
44871;PMS7003;30602;51.060;17.226;2022-07-01T13:41:38;19;17;15
44871;PMS7003;30602;51.060;17.226;2022-07-01T13:45:08;18;17;14
44871;PMS7003;30602;51.060;17.226;2022-07-01T13:48:21;17;15;13
44871;PMS7003;30602;51.060;17.226;2022-07-01T13:51:41;19;16;14
44871;PMS7003;30602;51.060;17.226;2022-07-01T13:54:50;21;19;16
44871;PMS7003;30602;51.060;17.226;2022-07-01T13:58:20;20;20;17
44871;PMS7003;30602;51.060;17.226;2022-07-01T14:02:03;21;19;16
44871;PMS7003;30602;51.060;17.226;2022-07-01T14:09:14;24;24;18
44871;PMS7003;30602;51.060;17.226;2022-07-01T14:13:09;25;24;18
44871;PMS7003;30602;51.060;17.226;2022-07-01T14:16:20;28;25;18
44871;PMS7003;30602;51.060;17.226;2022-07-01T14:19:49;27;24;19
44871;PMS7003;30602;51.060;17.226;2022-07-01T14:22:58;28;25;18
44871;PMS7003;30602;51.060;17.226;2022-07-01T14:26:08;25;24;19
44871;PMS7003;30602;51.060;17.226;2022-07-01T14:29:28;26;23;19
44871;PMS7003;30602;51.060;17.226;2022-07-01T14:32:47;25;24;20
44871;PMS7003;30602;51.060;17.226;2022-07-01T14:35:59;25;24;19
44871;PMS7003;30602;51.060;17.226;2022-07-01T14:39:58;33;30;21
44871;PMS7003;30602;51.060;17.226;2022-07-01T14:43:33;41;34;23
44871;PMS7003;30602;51.060;17.226;2022-07-01T14:47:15;35;30;22
44871;PMS7003;30602;51.060;17.226;2022-07-01T14:50:45;34;31;22
44871;PMS7003;30602;51.060;17.226;2022-07-01T14:54:22;35;31;22
44871;PMS7003;30602;51.060;17.226;2022-07-01T14:57:52;36;31;23
44871;PMS7003;30602;51.060;17.226;2022-07-01T15:01:42;34;30;22
44871;PMS7003;30602;51.060;17.226;2022-07-01T15:04:54;34;30;22
44871;PMS7003;30602;51.060;17.226;2022-07-01T15:08:27;32;29;21
44871;PMS7003;30602;51.060;17.226;2022-07-01T15:12:24;31;28;21
44871;PMS7003;30602;51.060;17.226;2022-07-01T15:16:12;29;26;20
44871;PMS7003;30602;51.060;17.226;2022-07-01T15:19:53;19;17;15
44871;PMS7003;30602;51.060;17.226;2022-07-01T15:23:34;14;14;10
44871;PMS7003;30602;51.060;17.226;2022-07-01T15:26:42;13;12;10
44871;PMS7003;30602;51.060;17.226;2022-07-01T15:30:05;13;11;9
44871;PMS7003;30602;51.060;17.226;2022-07-01T15:33:32;11;10;8
44871;PMS7003;30602;51.060;17.226;2022-07-01T15:36:52;13;12;10
44871;PMS7003;30602;51.060;17.226;2022-07-01T15:40:03;15;14;11
44871;PMS7003;30602;51.060;17.226;2022-07-01T15:43:46;17;17;13
44871;PMS7003;30602;51.060;17.226;2022-07-01T15:47:13;19;19;14
44871;PMS7003;30602;51.060;17.226;2022-07-01T15:50:39;20;20;16
44871;PMS7003;30602;51.060;17.226;2022-07-01T15:53:48;26;22;17
44871;PMS7003;30602;51.060;17.226;2022-07-01T15:57:30;24;23;18
44871;PMS7003;30602;51.060;17.226;2022-07-01T16:00:47;30;29;22
44871;PMS7003;30602;51.060;17.226;2022-07-01T16:04:16;33;31;21
44871;PMS7003;30602;51.060;17.226;2022-07-01T16:07:27;35;29;22
44871;PMS7003;30602;51.060;17.226;2022-07-01T16:10:47;32;29;21
44871;PMS7003;30602;51.060;17.226;2022-07-01T16:14:03;31;28;21
44871;PMS7003;30602;51.060;17.226;2022-07-01T16:17:40;34;31;23
44871;PMS7003;30602;51.060;17.226;2022-07-01T16:21:10;29;28;21
44871;PMS7003;30602;51.060;17.226;2022-07-01T16:24:47;32;30;22
44871;PMS7003;30602;51.060;17.226;2022-07-01T16:28:21;31;29;21
44871;PMS7003;30602;51.060;17.226;2022-07-01T16:31:47;31;28;20
44871;PMS7003;30602;51.060;17.226;2022-07-01T16:34:57;34;29;20
44871;PMS7003;30602;51.060;17.226;2022-07-01T16:42:43;28;25;20
44871;PMS7003;30602;51.060;17.226;2022-07-01T16:45:55;25;22;18
44871;PMS7003;30602;51.060;17.226;2022-07-01T16:49:24;25;23;19
44871;PMS7003;30602;51.060;17.226;2022-07-01T16:52:45;22;22;18
44871;PMS7003;30602;51.060;17.226;2022-07-01T16:55:54;23;21;17
44871;PMS7003;30602;51.060;17.226;2022-07-01T16:59:25;20;18;15
44871;PMS7003;30602;51.060;17.226;2022-07-01T17:03:45;21;19;15
44871;PMS7003;30602;51.060;17.226;2022-07-01T17:06:57;20;18;13
44871;PMS7003;30602;51.060;17.226;2022-07-01T17:10:33;17;16;11
44871;PMS7003;30602;51.060;17.226;2022-07-01T17:14:26;16;14;11
44871;PMS7003;30602;51.060;17.226;2022-07-01T17:18:00;10;9;8
44871;PMS7003;30602;51.060;17.226;2022-07-01T17:21:08;12;12;10
44871;PMS7003;30602;51.060;17.226;2022-07-01T17:35:03;13;12;10
44871;PMS7003;30602;51.060;17.226;2022-07-01T17:38:12;11;10;8
44871;PMS7003;30602;51.060;17.226;2022-07-01T17:42:11;10;10;8
44871;PMS7003;30602;51.060;17.226;2022-07-01T17:46:24;10;10;9
44871;PMS7003;30602;51.060;17.226;2022-07-01T17:49:35;11;9;8
44871;PMS7003;30602;51.060;17.226;2022-07-01T17:53:25;10;9;8
44871;PMS7003;30602;51.060;17.226;2022-07-01T17:56:52;9;9;8
44871;PMS7003;30602;51.060;17.226;2022-07-01T18:00:07;12;11;9
44871;PMS7003;30602;51.060;17.226;2022-07-01T18:03:47;11;10;8
44871;PMS7003;30602;51.060;17.226;2022-07-01T18:06:56;9;9;8
44871;PMS7003;30602;51.060;17.226;2022-07-01T18:10:26;12;11;9
44871;PMS7003;30602;51.060;17.226;2022-07-01T18:21:09;10;10;8
44871;PMS7003;30602;51.060;17.226;2022-07-01T18:24:25;8;8;7
44871;PMS7003;30602;51.060;17.226;2022-07-01T18:27:44;11;10;9
44871;PMS7003;30602;51.060;17.226;2022-07-01T18:35:35;13;10;8
44871;PMS7003;30602;51.060;17.226;2022-07-01T18:39:19;9;9;7
44871;PMS7003;30602;51.060;17.226;2022-07-01T18:42:29;8;8;7
44871;PMS7003;30602;51.060;17.226;2022-07-01T18:46:00;8;7;7
44871;PMS7003;30602;51.060;17.226;2022-07-01T18:49:05;10;7;6
44871;PMS7003;30602;51.060;17.226;2022-07-01T18:52:39;10;8;7
44871;PMS7003;30602;51.060;17.226;2022-07-01T18:56:31;7;7;6
44871;PMS7003;30602;51.060;17.226;2022-07-01T18:59:40;6;6;6
44871;PMS7003;30602;51.060;17.226;2022-07-01T19:03:18;7;7;6
44871;PMS7003;30602;51.060;17.226;2022-07-01T19:06:50;7;6;5
44871;PMS7003;30602;51.060;17.226;2022-07-01T19:10:31;9;6;6
44871;PMS7003;30602;51.060;17.226;2022-07-01T19:14:00;7;7;5
44871;PMS7003;30602;51.060;17.226;2022-07-01T19:17:55;5;5;5
44871;PMS7003;30602;51.060;17.226;2022-07-01T19:21:50;5;5;4
44871;PMS7003;30602;51.060;17.226;2022-07-01T19:24:59;7;7;6
44871;PMS7003;30602;51.060;17.226;2022-07-01T19:28:29;7;7;6
44871;PMS7003;30602;51.060;17.226;2022-07-01T19:31:57;5;5;5
44871;PMS7003;30602;51.060;17.226;2022-07-01T19:35:07;6;5;4
44871;PMS7003;30602;51.060;17.226;2022-07-01T19:38:57;7;7;6
44871;PMS7003;30602;51.060;17.226;2022-07-01T19:42:37;9;7;6
44871;PMS7003;30602;51.060;17.226;2022-07-01T19:45:48;9;9;6
44871;PMS7003;30602;51.060;17.226;2022-07-01T19:48:55;7;6;5
44871;PMS7003;30602;51.060;17.226;2022-07-01T19:52:57;7;6;5
44871;PMS7003;30602;51.060;17.226;2022-07-01T19:56:47;7;7;6
44871;PMS7003;30602;51.060;17.226;2022-07-01T20:00:17;7;6;5
44871;PMS7003;30602;51.060;17.226;2022-07-01T20:03:50;11;9;6
44871;PMS7003;30602;51.060;17.226;2022-07-01T20:07:41;7;7;6
44871;PMS7003;30602;51.060;17.226;2022-07-01T20:11:53;5;5;4
44871;PMS7003;30602;51.060;17.226;2022-07-01T20:15:05;7;7;6
44871;PMS7003;30602;51.060;17.226;2022-07-01T20:18:13;8;8;6
44871;PMS7003;30602;51.060;17.226;2022-07-01T20:21:23;6;6;5
44871;PMS7003;30602;51.060;17.226;2022-07-01T20:24:56;6;6;5
44871;PMS7003;30602;51.060;17.226;2022-07-01T20:28:05;8;8;5
44871;PMS7003;30602;51.060;17.226;2022-07-01T20:31:30;6;6;5
44871;PMS7003;30602;51.060;17.226;2022-07-01T20:35:03;7;7;6
44871;PMS7003;30602;51.060;17.226;2022-07-01T20:38:11;7;6;5
44871;PMS7003;30602;51.060;17.226;2022-07-01T20:41:42;6;6;5
44871;PMS7003;30602;51.060;17.226;2022-07-01T20:45:23;7;7;6
44871;PMS7003;30602;51.060;17.226;2022-07-01T20:48:53;7;5;5
44871;PMS7003;30602;51.060;17.226;2022-07-01T20:52:13;6;6;5
44871;PMS7003;30602;51.060;17.226;2022-07-01T20:55:44;7;6;5
44871;PMS7003;30602;51.060;17.226;2022-07-01T20:59:18;4;4;4
44871;PMS7003;30602;51.060;17.226;2022-07-01T21:02:55;5;5;4
44871;PMS7003;30602;51.060;17.226;2022-07-01T21:06:25;4;4;3
44871;PMS7003;30602;51.060;17.226;2022-07-01T21:09:32;5;4;3
44871;PMS7003;30602;51.060;17.226;2022-07-01T21:13:21;4;4;4
44871;PMS7003;30602;51.060;17.226;2022-07-01T21:16:41;5;5;5
44871;PMS7003;30602;51.060;17.226;2022-07-01T21:20:19;5;5;4
44871;PMS7003;30602;51.060;17.226;2022-07-01T21:23:27;5;4;4
44871;PMS7003;30602;51.060;17.226;2022-07-01T21:26:35;5;5;4
44871;PMS7003;30602;51.060;17.226;2022-07-01T21:30:34;5;5;4
44871;PMS7003;30602;51.060;17.226;2022-07-01T21:34:04;5;5;4
44871;PMS7003;30602;51.060;17.226;2022-07-01T21:37:36;5;5;4
44871;PMS7003;30602;51.060;17.226;2022-07-01T21:41:05;5;5;4
44871;PMS7003;30602;51.060;17.226;2022-07-01T21:44:36;7;5;4
44871;PMS7003;30602;51.060;17.226;2022-07-01T21:48:17;8;6;5
44871;PMS7003;30602;51.060;17.226;2022-07-01T21:51:28;7;6;5
44871;PMS7003;30602;51.060;17.226;2022-07-01T21:55:05;5;4;4
44871;PMS7003;30602;51.060;17.226;2022-07-01T21:58:18;4;3;3
44871;PMS7003;30602;51.060;17.226;2022-07-01T22:01:27;4;4;4
44871;PMS7003;30602;51.060;17.226;2022-07-01T22:05:01;6;4;4
44871;PMS7003;30602;51.060;17.226;2022-07-01T22:08:37;6;5;4
44871;PMS7003;30602;51.060;17.226;2022-07-01T22:11:46;5;4;3
44871;PMS7003;30602;51.060;17.226;2022-07-01T22:15:19;7;5;4
44871;PMS7003;30602;51.060;17.226;2022-07-01T22:19:14;5;4;3
44871;PMS7003;30602;51.060;17.226;2022-07-01T22:22:28;3;3;3
44871;PMS7003;30602;51.060;17.226;2022-07-01T22:26:05;5;5;4
44871;PMS7003;30602;51.060;17.226;2022-07-01T22:30:13;4;4;4
44871;PMS7003;30602;51.060;17.226;2022-07-01T22:33:26;10;9;7
44871;PMS7003;30602;51.060;17.226;2022-07-01T22:36:37;7;5;4
44871;PMS7003;30602;51.060;17.226;2022-07-01T22:40:12;9;6;4
44871;PMS7003;30602;51.060;17.226;2022-07-01T22:43:52;6;5;4
44871;PMS7003;30602;51.060;17.226;2022-07-01T22:47:06;5;5;5
44871;PMS7003;30602;51.060;17.226;2022-07-01T22:50:39;5;4;3
44871;PMS7003;30602;51.060;17.226;2022-07-01T22:53:49;8;5;3
44871;PMS7003;30602;51.060;17.226;2022-07-01T22:57:07;5;5;4
44871;PMS7003;30602;51.060;17.226;2022-07-01T23:01:31;5;4;3
44871;PMS7003;30602;51.060;17.226;2022-07-01T23:04:46;6;5;3
44871;PMS7003;30602;51.060;17.226;2022-07-01T23:12:31;7;6;5
44871;PMS7003;30602;51.060;17.226;2022-07-01T23:16:08;5;5;4
44871;PMS7003;30602;51.060;17.226;2022-07-01T23:19:41;4;4;4
44871;PMS7003;30602;51.060;17.226;2022-07-01T23:23:11;10;5;4
44871;PMS7003;30602;51.060;17.226;2022-07-01T23:26:26;8;8;6
44871;PMS7003;30602;51.060;17.226;2022-07-01T23:30:00;8;8;6
44871;PMS7003;30602;51.060;17.226;2022-07-01T23:33:27;5;5;4
44871;PMS7003;30602;51.060;17.226;2022-07-01T23:36:39;10;8;7
44871;PMS7003;30602;51.060;17.226;2022-07-01T23:40:21;7;6;5
44871;PMS7003;30602;51.060;17.226;2022-07-01T23:43:31;7;7;5
44871;PMS7003;30602;51.060;17.226;2022-07-01T23:46:52;8;6;5
44871;PMS7003;30602;51.060;17.226;2022-07-01T23:50:07;9;8;6
44871;PMS7003;30602;51.060;17.226;2022-07-01T23:53:17;8;7;6
44871;PMS7003;30602;51.060;17.226;2022-07-01T23:57:07;8;7;5
